createdAt,value
2019-01-24T06:59:35.745Z,47.60
2019-01-24T07:00:35.934Z,52.30
2019-01-24T07:01:35.560Z,49.90
2019-01-24T07:08:06.300Z,43.00
2019-01-24T07:09:06.072Z,48.70
2019-01-24T07:10:04.230Z,48.20
2019-01-24T07:12:15.273Z,44.40
2019-01-24T07:13:14.748Z,46.60
2019-01-24T07:14:14.739Z,46.80
2019-01-24T07:27:49.736Z,46.60
2019-01-24T07:28:52.665Z,49.90
2019-01-24T07:31:27.225Z,45.20
2019-01-24T07:41:58.827Z,41.00
2019-01-24T07:42:58.923Z,49.50
2019-01-24T08:08:20.390Z,40.20
2019-01-24T08:09:19.360Z,46.20
2019-01-24T08:10:19.309Z,46.20
2019-01-24T08:11:24.606Z,45.00
2019-01-24T08:14:22.709Z,42.10
2019-01-24T08:20:23.456Z,38.20
2019-01-24T08:21:23.118Z,43.70
2019-01-24T08:26:53.321Z,41.60
2019-01-24T08:27:53.285Z,45.70
2019-01-24T08:28:53.200Z,46.30
2019-01-24T08:39:21.438Z,40.20
2019-01-24T08:40:20.892Z,44.60
2019-01-24T08:41:20.899Z,45.30
2019-01-24T08:42:20.824Z,46.20
2019-01-24T08:43:20.725Z,45.40
2019-01-24T08:44:20.646Z,43.40
2019-01-24T08:45:20.712Z,44.50
2019-01-24T08:46:20.610Z,45.60
2019-01-24T08:47:20.606Z,42.50
2019-01-24T08:48:20.665Z,43.20
2019-01-24T08:49:20.874Z,43.60
2019-01-24T08:50:20.584Z,43.80
2019-01-24T08:51:20.594Z,44.20
2019-01-24T08:52:20.591Z,43.50
2019-01-24T08:53:20.574Z,43.60
2019-01-24T08:54:20.567Z,44.50
2019-01-24T08:55:20.599Z,43.80
2019-01-24T08:56:20.538Z,43.30
2019-01-24T08:57:20.508Z,43.70
2019-01-24T08:58:20.540Z,43.40
2019-01-24T08:59:20.549Z,43.90
2019-01-24T09:00:20.467Z,42.40
2019-01-24T09:01:20.458Z,42.10
2019-01-24T09:02:20.518Z,42.40
2019-01-24T09:03:20.450Z,43.50
2019-01-24T09:04:20.467Z,42.50
2019-01-24T09:05:20.412Z,42.70
2019-01-24T09:06:22.665Z,45.40
2019-01-24T09:07:20.419Z,43.00
2019-01-24T09:08:20.387Z,43.70
2019-01-24T09:09:20.414Z,44.90
2019-01-24T09:10:20.415Z,44.10
2019-01-24T09:25:01.303Z,42.40
2019-01-24T09:26:00.861Z,47.70
2019-01-24T09:27:00.919Z,45.50
2019-01-24T09:28:00.871Z,46.30
2019-01-24T09:29:00.714Z,45.60
2019-01-24T09:30:00.860Z,46.70
2019-01-24T09:33:00.015Z,40.70
2019-01-24T09:43:31.883Z,40.50
2019-01-24T09:53:42.432Z,41.30
2019-01-24T09:54:40.902Z,45.60
2019-01-24T09:55:40.983Z,43.50
2019-01-24T14:21:40.378Z,54.90
2019-01-24T16:07:26.177Z,52.40
2019-01-24T16:08:25.681Z,61.10
2019-01-24T16:09:25.691Z,59.60
2019-01-24T16:10:34.241Z,59.90
2019-01-24T16:11:25.813Z,59.80
2019-01-24T16:12:25.848Z,60.50
2019-01-24T16:13:25.602Z,57.60
2019-01-24T16:14:25.535Z,60.80
2019-01-24T16:15:25.481Z,59.70
2019-01-24T16:16:25.503Z,60.40
2019-01-24T16:17:25.464Z,60.50
2019-01-24T16:18:25.469Z,59.40
2019-01-24T16:19:25.433Z,59.50
2019-01-24T16:20:25.477Z,60.50
2019-01-24T16:21:25.435Z,59.40
2019-01-24T16:22:25.401Z,59.30
2019-01-24T16:23:25.423Z,60.70
2019-01-24T16:24:25.382Z,61.20
2019-01-24T16:25:25.394Z,59.50
2019-01-24T16:26:25.359Z,60.30
2019-01-24T16:27:25.406Z,62.10
2019-01-24T16:28:25.345Z,61.10
2019-01-24T16:29:25.461Z,61.90
2019-01-24T16:30:25.318Z,62.20
2019-01-24T16:31:25.313Z,59.50
2019-01-24T16:32:25.293Z,61.80
2019-01-24T16:33:25.294Z,61.30
2019-01-24T16:34:25.269Z,58.30
2019-01-24T16:35:25.273Z,61.80
2019-01-24T16:36:25.248Z,60.30
2019-01-24T16:37:25.242Z,60.70
2019-01-24T16:38:25.236Z,60.60
2019-01-24T16:39:25.219Z,62.20
2019-01-24T16:40:25.246Z,61.00
2019-01-24T16:41:25.217Z,61.50
2019-01-24T16:42:25.205Z,60.40
2019-01-24T16:43:25.178Z,61.70
2019-01-24T16:44:25.212Z,61.60
2019-01-24T16:45:25.153Z,59.60
2019-01-24T16:46:25.162Z,60.30
2019-01-24T16:47:25.162Z,59.80
2019-01-24T16:48:25.232Z,60.70
2019-01-24T16:49:25.131Z,62.10
2019-01-24T16:50:25.159Z,60.10
2019-01-24T16:51:25.126Z,60.00
2019-01-24T16:52:25.086Z,61.20
2019-01-24T16:53:26.083Z,61.70
2019-01-24T16:54:25.094Z,62.00
2019-01-24T16:55:25.807Z,61.40
2019-01-24T16:56:25.043Z,61.90
2019-01-24T16:57:25.021Z,59.60
2019-01-24T16:58:25.071Z,60.60
2019-01-24T16:59:25.028Z,60.50
2019-01-24T17:00:25.001Z,59.90
2019-01-24T17:01:24.993Z,61.30
2019-01-24T17:02:24.975Z,60.80
2019-01-24T17:03:25.016Z,60.00
2019-01-24T17:04:24.950Z,61.00
2019-01-24T17:05:24.961Z,60.90
2019-01-24T17:06:24.944Z,60.90
2019-01-24T17:07:24.917Z,60.30
2019-01-24T17:08:24.910Z,62.00
2019-01-24T17:09:24.896Z,61.60
2019-01-24T17:10:34.788Z,63.70
2019-01-24T17:11:24.899Z,62.60
2019-01-24T17:12:33.532Z,63.30
2019-01-24T17:13:33.853Z,62.60
2019-01-24T17:14:33.180Z,63.70
2019-01-24T17:15:25.146Z,63.60
2019-01-24T17:16:24.942Z,61.20
2019-01-24T17:17:25.052Z,60.40
2019-01-24T17:18:24.985Z,62.30
2019-01-24T17:19:24.870Z,61.60
2019-01-24T17:20:24.791Z,62.40
2019-01-24T17:21:24.765Z,61.30
2019-01-24T17:22:24.760Z,60.70
2019-01-24T17:23:24.810Z,60.20
2019-01-24T17:24:24.739Z,60.00
2019-01-24T17:25:24.758Z,60.70
2019-01-24T17:26:24.716Z,59.50
2019-01-24T17:27:24.748Z,60.90
2019-01-24T17:28:24.705Z,61.00
2019-01-24T17:29:24.690Z,60.40
2019-01-24T17:30:24.729Z,60.50
2019-01-24T17:31:24.683Z,60.80
2019-01-24T17:32:24.683Z,60.00
2019-01-24T17:33:24.663Z,58.90
2019-01-24T17:34:24.639Z,59.00
2019-01-24T17:35:24.651Z,59.60
2019-01-24T17:36:24.747Z,61.10
2019-01-24T17:37:24.600Z,62.20
2019-01-24T17:38:24.595Z,62.30
2019-01-24T17:39:24.595Z,58.40
2019-01-24T17:42:04.818Z,58.20
2019-01-24T17:42:41.437Z,58.60
2019-01-24T17:43:41.620Z,59.90
2019-01-24T17:44:41.403Z,60.20
2019-01-24T17:45:41.411Z,60.60
2019-01-24T17:46:41.313Z,60.70
2019-01-24T17:47:41.343Z,59.10
2019-01-24T17:48:41.318Z,60.20
2019-01-24T17:49:41.339Z,61.20
2019-01-24T17:50:41.312Z,58.70
2019-01-24T17:51:41.248Z,59.10
2019-01-24T17:52:41.294Z,58.30
2019-01-24T17:53:41.244Z,59.60
2019-01-24T17:54:41.273Z,59.20
2019-01-24T17:55:41.266Z,60.20
2019-01-24T17:56:41.196Z,61.60
2019-01-24T17:57:41.196Z,63.40
2019-01-24T17:58:41.194Z,63.50
2019-01-24T17:59:41.217Z,62.30
2019-01-24T18:00:41.168Z,63.40
2019-01-24T18:01:41.156Z,66.50
2019-01-24T18:02:41.165Z,63.20
2019-01-24T18:03:42.603Z,63.30
2019-01-24T18:05:52.474Z,56.40
2019-01-24T18:06:53.170Z,61.40
2019-01-24T18:07:52.563Z,64.10
2019-01-24T18:08:51.819Z,65.90
2019-01-24T18:09:51.817Z,63.80
2019-01-24T18:10:52.602Z,64.00
2019-01-24T18:11:51.778Z,62.30
2019-01-24T18:12:51.743Z,63.00
2019-01-24T18:13:51.741Z,64.20
2019-01-24T18:14:51.796Z,64.30
2019-01-24T18:15:51.721Z,62.10
2019-01-24T18:16:51.711Z,62.90
2019-01-24T18:17:51.712Z,61.90
2019-01-24T18:18:51.741Z,62.80
2019-01-24T18:19:51.673Z,62.60
2019-01-24T18:20:51.725Z,63.00
2019-01-24T18:21:51.659Z,65.00
2019-01-24T18:22:51.677Z,64.50
2019-01-24T18:23:51.636Z,62.40
2019-01-24T18:24:51.631Z,63.10
2019-01-24T18:25:51.730Z,62.70
2019-01-24T18:26:51.620Z,62.80
2019-01-24T18:27:51.606Z,63.30
2019-01-24T18:28:51.615Z,63.50
2019-01-24T18:29:51.639Z,65.00
2019-01-24T18:30:51.576Z,64.00
2019-01-24T18:31:51.549Z,63.20
2019-01-24T18:32:51.553Z,65.70
2019-01-24T18:35:02.963Z,58.80
2019-01-24T18:36:02.948Z,62.40
2019-01-24T18:37:02.613Z,64.10
2019-01-24T18:38:02.998Z,64.00
2019-01-24T18:39:02.839Z,63.50
2019-01-24T18:40:02.486Z,62.90
2019-01-24T18:41:08.557Z,64.30
2019-01-24T18:42:03.627Z,61.30
2019-01-24T18:43:02.461Z,64.50
2019-01-24T18:44:02.399Z,62.00
2019-01-24T18:45:02.473Z,63.30
2019-01-24T18:46:02.382Z,64.10
2019-01-24T18:47:02.398Z,61.60
2019-01-24T18:48:02.424Z,61.50
2019-01-24T18:49:02.344Z,62.70
2019-01-24T18:50:02.397Z,62.70
2019-01-24T18:51:02.321Z,63.40
2019-01-24T18:52:02.356Z,65.80
2019-01-24T18:53:02.345Z,62.30
2019-01-24T18:54:02.280Z,63.20
2019-01-24T18:55:02.271Z,62.90
2019-01-24T18:56:02.263Z,60.70
2019-01-24T18:57:02.291Z,61.30
2019-01-24T18:58:02.427Z,62.10
2019-01-24T18:59:02.354Z,62.60
2019-01-24T19:00:02.300Z,61.50
2019-01-24T19:01:02.220Z,61.10
2019-01-24T19:02:03.190Z,63.00
2019-01-24T19:03:02.195Z,61.90
2019-01-24T19:04:02.197Z,61.40
2019-01-24T19:05:02.268Z,60.60
2019-01-24T19:06:02.174Z,61.20
2019-01-24T19:07:02.234Z,60.30
2019-01-24T19:09:03.142Z,61.40
2019-01-24T19:10:02.133Z,61.80
2019-01-24T19:11:03.071Z,62.30
2019-01-24T19:12:02.087Z,62.00
2019-01-24T19:13:02.095Z,62.40
2019-01-24T19:14:02.084Z,62.60
2019-01-24T19:15:02.704Z,62.20
2019-01-24T19:18:10.321Z,56.80
2019-01-24T19:20:59.306Z,54.80
2019-01-24T19:21:59.313Z,59.80
2019-01-24T19:22:59.864Z,60.00
2019-01-24T19:24:02.345Z,59.70
2019-01-24T19:24:58.935Z,60.10
2019-01-24T19:28:47.263Z,52.20
2019-01-24T19:45:11.328Z,53.60
2019-01-24T19:46:09.666Z,59.20
2019-01-24T19:47:09.841Z,60.10
2019-01-24T19:48:09.602Z,59.60
2019-01-24T19:49:16.376Z,58.90
2019-01-24T19:52:46.804Z,56.60
2019-01-24T19:55:03.900Z,56.60
2019-01-24T19:58:51.323Z,53.30
2019-01-24T19:59:50.943Z,59.10
2019-01-24T20:02:38.399Z,61.00
2019-01-24T20:03:38.000Z,61.60
2019-01-24T20:04:42.747Z,62.10
2019-01-24T20:08:42.578Z,55.90
2019-01-24T20:09:42.277Z,59.00
2019-01-24T20:24:55.357Z,53.70
2019-01-24T20:25:50.596Z,58.80
2019-01-24T20:26:50.167Z,58.80
2019-01-24T20:27:50.020Z,59.30
2019-01-24T20:28:58.809Z,56.60
2019-01-24T20:30:06.143Z,58.20
2019-01-24T20:30:51.178Z,56.00
2019-01-24T20:31:52.709Z,59.70
2019-01-24T20:32:49.864Z,58.60
2019-01-24T20:33:49.852Z,57.00
2019-01-24T20:34:49.847Z,57.00
2019-01-24T20:35:55.564Z,56.60
2019-01-24T20:38:22.619Z,53.30
2019-01-24T20:39:47.280Z,56.00
2019-01-24T20:40:32.800Z,56.30
2019-01-24T20:41:22.243Z,55.80
2019-01-24T20:42:22.042Z,56.40
2019-01-24T20:43:22.082Z,56.50
2019-01-24T20:44:22.037Z,55.50
2019-01-24T20:45:22.014Z,53.70
2019-01-24T20:46:22.041Z,54.80
2019-01-24T20:47:22.005Z,55.30
2019-01-24T20:48:21.991Z,53.40
2019-01-24T21:58:43.322Z,48.50
2019-01-24T21:59:42.616Z,50.10
2019-01-24T22:00:42.650Z,50.10
2019-01-24T22:01:42.629Z,49.90
2019-01-24T22:02:42.484Z,50.90
2019-01-24T22:03:42.392Z,49.60
2019-01-24T22:04:42.463Z,49.80
2019-01-24T22:05:42.503Z,49.70
2019-01-24T22:08:01.434Z,49.20
2019-01-24T22:09:01.027Z,51.30
2019-01-24T22:11:13.148Z,47.10
2019-01-24T22:14:11.749Z,42.70
2019-01-24T22:15:11.340Z,51.60
2019-01-24T22:16:11.178Z,50.70
2019-01-24T22:17:11.124Z,51.20
2019-01-24T22:18:11.129Z,50.60
2019-01-24T22:19:11.080Z,49.70
2019-01-24T22:20:11.051Z,48.60
2019-01-24T22:21:11.105Z,48.90
2019-01-24T22:22:11.021Z,47.80
2019-01-24T22:23:11.051Z,46.40
2019-01-24T22:24:10.970Z,47.60
2019-01-24T22:25:11.054Z,48.10
2019-01-24T22:26:10.983Z,47.20
2019-01-24T22:27:11.011Z,47.60
2019-01-24T22:28:10.963Z,46.80
2019-01-24T22:29:10.910Z,46.40
2019-01-24T22:30:10.955Z,47.10
2019-01-24T22:31:10.909Z,48.00
2019-01-24T22:32:10.890Z,48.80
2019-01-24T22:33:10.935Z,47.30
2019-01-24T22:34:10.879Z,47.10
2019-01-24T22:35:10.852Z,46.90
2019-01-24T22:36:10.823Z,48.60
2019-01-24T22:37:10.892Z,48.10
2019-01-24T22:38:10.848Z,47.90
2019-01-24T22:39:10.841Z,47.60
2019-01-24T22:40:10.851Z,48.90
2019-01-24T22:41:10.775Z,47.90
2019-01-24T22:42:10.770Z,48.50
2019-01-24T22:43:10.781Z,50.40
2019-01-24T22:44:10.790Z,50.20
2019-01-24T22:45:10.781Z,51.90
2019-01-24T22:46:10.772Z,49.30
2019-01-24T22:47:10.753Z,50.40
2019-01-24T22:48:10.699Z,50.20
2019-01-24T22:49:10.753Z,51.00
2019-01-24T22:50:10.733Z,51.60
2019-01-24T22:51:10.672Z,53.40
2019-01-24T22:52:10.652Z,51.30
2019-01-24T22:53:10.680Z,52.60
2019-01-24T22:54:10.638Z,52.40
2019-01-24T22:55:10.639Z,51.90
2019-01-24T22:56:10.654Z,51.70
2019-01-24T22:57:10.674Z,51.90
2019-01-24T22:58:10.590Z,48.70
2019-01-24T22:59:10.598Z,47.20
2019-01-24T23:00:10.583Z,48.90
2019-01-24T23:01:10.566Z,48.40
2019-01-24T23:02:10.560Z,50.80
2019-01-24T23:03:10.537Z,49.40
2019-01-24T23:04:10.591Z,46.80
2019-01-24T23:05:10.528Z,45.60
2019-01-24T23:06:10.533Z,46.00
2019-01-24T23:07:10.536Z,47.80
2019-01-24T23:08:10.485Z,48.20
2019-01-24T23:09:10.654Z,50.30
2019-01-24T23:10:10.466Z,51.30
2019-01-24T23:11:10.455Z,52.20
2019-01-24T23:12:10.447Z,50.50
2019-01-24T23:13:10.502Z,53.20
2019-01-24T23:14:10.453Z,50.60
2019-01-24T23:15:10.484Z,50.50
2019-01-24T23:16:10.412Z,50.90
2019-01-24T23:17:10.383Z,50.40
2019-01-24T23:18:10.379Z,49.50
2019-01-24T23:19:10.357Z,50.50
2019-01-24T23:20:10.403Z,49.30
2019-01-24T23:21:10.381Z,48.10
2019-01-24T23:22:10.334Z,45.80
2019-01-24T23:23:10.322Z,47.50
2019-01-24T23:24:10.334Z,46.20
2019-01-24T23:25:10.327Z,46.50
2019-01-24T23:26:10.332Z,46.80
2019-01-24T23:27:10.288Z,46.70
2019-01-24T23:28:10.295Z,45.80
2019-01-24T23:29:10.255Z,45.70
2019-01-24T23:30:10.273Z,47.40
2019-01-24T23:31:10.232Z,44.80
2019-01-24T23:32:10.238Z,46.30
2019-01-24T23:33:10.207Z,47.00
2019-01-24T23:34:10.234Z,46.40
2019-01-24T23:35:10.205Z,45.70
2019-01-24T23:36:10.212Z,46.20
2019-01-24T23:37:10.175Z,44.90
2019-01-24T23:38:10.157Z,46.50
2019-01-24T23:39:10.207Z,47.40
2019-01-24T23:40:10.143Z,47.00
2019-01-24T23:41:10.122Z,46.50
2019-01-24T23:42:10.110Z,46.50
2019-01-24T23:43:10.104Z,46.00
2019-01-24T23:44:10.096Z,44.80
2019-01-24T23:45:10.099Z,46.90
2019-01-24T23:46:10.082Z,46.20
2019-01-24T23:47:10.132Z,47.50
2019-01-24T23:48:10.083Z,47.30
2019-01-24T23:49:10.078Z,45.90
2019-01-24T23:50:10.080Z,46.20
2019-01-24T23:51:10.017Z,48.60
2019-01-24T23:52:10.896Z,46.30
2019-01-24T23:53:10.032Z,44.90
2019-01-24T23:54:10.025Z,45.70
2019-01-24T23:55:09.971Z,47.00
2019-01-24T23:56:10.040Z,46.10
2019-01-24T23:57:09.951Z,45.70
2019-01-24T23:58:09.969Z,45.70
2019-01-24T23:59:10.013Z,46.80
